createdAt,value
2019-03-25T00:01:17.324Z,92.50
2019-03-25T00:03:46.087Z,92.50
2019-03-25T00:06:14.589Z,92.50
2019-03-25T00:08:43.197Z,92.70
2019-03-25T00:11:12.114Z,92.80
2019-03-25T00:13:40.665Z,92.90
2019-03-25T00:16:09.607Z,93.10
2019-03-25T00:18:38.065Z,93.00
2019-03-25T00:21:06.546Z,93.30
2019-03-25T00:23:34.986Z,93.60
2019-03-25T00:26:03.600Z,93.60
2019-03-25T00:28:32.126Z,93.60
2019-03-25T00:31:00.530Z,93.50
2019-03-25T00:33:29.048Z,93.60
2019-03-25T00:35:57.504Z,93.70
2019-03-25T00:38:25.947Z,93.70
2019-03-25T00:40:54.433Z,93.70
2019-03-25T00:43:22.861Z,93.80
2019-03-25T00:45:57.019Z,93.90
2019-03-25T00:48:25.539Z,94.00
2019-03-25T00:50:54.331Z,93.90
2019-03-25T00:53:22.777Z,94.00
2019-03-25T00:55:51.227Z,93.90
2019-03-25T00:58:19.742Z,93.80
2019-03-25T01:00:48.310Z,93.80
2019-03-25T01:03:17.354Z,93.90
2019-03-25T01:05:45.857Z,93.90
2019-03-25T01:08:15.601Z,93.80
2019-03-25T01:10:44.084Z,93.70
2019-03-25T01:13:12.785Z,94.00
2019-03-25T01:15:41.224Z,94.10
2019-03-25T01:18:16.681Z,94.00
2019-03-25T01:20:39.885Z,94.00
2019-03-25T01:23:08.315Z,94.10
2019-03-25T01:25:36.866Z,94.10
2019-03-25T01:28:05.533Z,94.00
2019-03-25T01:30:34.081Z,93.80
2019-03-25T01:33:02.535Z,94.30
2019-03-25T01:35:31.496Z,93.90
2019-03-25T01:37:59.972Z,93.70
2019-03-25T01:40:28.445Z,93.40
2019-03-25T01:42:56.969Z,93.30
2019-03-25T01:45:25.588Z,93.20
2019-03-25T01:47:54.104Z,93.00
2019-03-25T01:50:22.693Z,92.80
2019-03-25T01:52:51.156Z,92.80
2019-03-25T01:55:21.156Z,92.70
2019-03-25T01:57:49.574Z,92.50
2019-03-25T02:00:18.236Z,92.70
2019-03-25T02:02:46.762Z,92.30
2019-03-25T02:05:15.195Z,92.20
2019-03-25T02:07:43.719Z,92.40
2019-03-25T02:10:12.884Z,92.40
2019-03-25T02:12:41.304Z,92.30
2019-03-25T02:15:10.194Z,92.20
2019-03-25T02:17:38.678Z,92.00
2019-03-25T02:20:07.467Z,92.10
2019-03-25T02:22:36.174Z,92.30
2019-03-25T02:25:06.087Z,92.20
2019-03-25T02:27:34.563Z,92.30
2019-03-25T02:30:04.541Z,92.10
2019-03-25T02:32:32.983Z,92.10
2019-03-25T02:35:01.512Z,92.20
2019-03-25T02:37:30.257Z,92.20
2019-03-25T02:39:58.688Z,92.20
2019-03-25T02:42:27.233Z,92.30
2019-03-25T02:44:55.716Z,92.30
2019-03-25T02:47:24.356Z,92.40
2019-03-25T02:49:52.853Z,92.30
2019-03-25T02:52:21.445Z,92.30
2019-03-25T02:55:02.970Z,92.50
2019-03-25T02:57:31.487Z,92.60
2019-03-25T03:00:00.073Z,92.60
2019-03-25T03:02:28.576Z,92.60
2019-03-25T03:04:57.115Z,92.90
2019-03-25T03:07:25.686Z,92.90
2019-03-25T03:09:54.194Z,92.80
2019-03-25T03:12:22.638Z,92.80
2019-03-25T03:14:51.182Z,92.90
2019-03-25T03:17:20.060Z,92.80
2019-03-25T03:19:48.479Z,92.80
2019-03-25T03:22:16.947Z,92.80
2019-03-25T03:24:45.633Z,92.90
2019-03-25T03:27:20.542Z,93.00
2019-03-25T03:29:49.108Z,92.90
2019-03-25T03:32:17.524Z,92.90
2019-03-25T03:34:46.058Z,93.10
2019-03-25T03:37:14.529Z,93.20
2019-03-25T03:39:43.131Z,93.30
2019-03-25T03:42:11.580Z,93.50
2019-03-25T03:44:40.068Z,93.60
2019-03-25T03:47:08.521Z,93.80
2019-03-25T03:49:37.016Z,93.80
2019-03-25T03:52:05.530Z,94.00
2019-03-25T03:54:34.249Z,94.10
2019-03-25T03:57:03.158Z,94.00
2019-03-25T03:59:31.719Z,93.90
2019-03-25T04:02:00.206Z,94.10
2019-03-25T04:04:28.666Z,94.10
2019-03-25T04:06:57.184Z,94.30
2019-03-25T04:09:25.608Z,94.40
2019-03-25T04:11:54.172Z,94.50
2019-03-25T04:14:22.668Z,94.50
2019-03-25T04:16:51.226Z,94.70
2019-03-25T04:19:20.002Z,94.80
2019-03-25T04:21:48.471Z,94.90
2019-03-25T04:24:17.091Z,95.10
2019-03-25T04:26:45.655Z,95.30
2019-03-25T04:29:14.207Z,95.30
2019-03-25T04:31:42.781Z,95.70
2019-03-25T04:34:11.255Z,95.70
2019-03-25T04:36:39.862Z,96.00
2019-03-25T04:39:08.882Z,96.30
2019-03-25T04:41:37.766Z,96.70
2019-03-25T04:44:06.270Z,96.90
2019-03-25T04:46:34.780Z,97.10
2019-03-25T04:49:03.227Z,97.40
2019-03-25T04:51:31.772Z,97.60
2019-03-25T04:54:00.383Z,97.70
2019-03-25T04:56:39.034Z,97.70
2019-03-25T04:58:58.976Z,98.20
2019-03-25T05:01:27.471Z,98.30
2019-03-25T05:03:55.956Z,98.80
2019-03-25T05:06:24.434Z,98.90
2019-03-25T05:08:52.935Z,99.00
2019-03-25T05:11:30.342Z,99.30
2019-03-25T05:13:51.558Z,99.40
2019-03-25T05:16:20.007Z,99.20
2019-03-25T05:18:48.448Z,99.50
2019-03-25T05:21:17.300Z,99.50
2019-03-25T05:23:45.799Z,99.20
2019-03-25T05:26:14.405Z,99.10
2019-03-25T05:28:42.923Z,99.10
2019-03-25T05:31:11.370Z,99.10
2019-03-25T05:33:39.821Z,99.00
2019-03-25T05:36:08.355Z,98.80
2019-03-25T05:38:37.494Z,98.90
2019-03-25T05:41:05.987Z,98.70
2019-03-25T05:43:34.446Z,98.80
2019-03-25T05:46:02.873Z,98.80
2019-03-25T05:48:31.307Z,99.00
2019-03-25T05:50:59.926Z,99.00
2019-03-25T05:53:28.482Z,99.20
2019-03-25T05:55:57.196Z,99.00
2019-03-25T05:58:25.852Z,99.40
2019-03-25T06:00:54.427Z,99.00
2019-03-25T06:03:22.991Z,99.00
2019-03-25T06:05:51.421Z,99.00
2019-03-25T06:08:20.171Z,98.80
2019-03-25T06:11:08.089Z,98.90
2019-03-25T06:13:37.252Z,99.00
2019-03-25T06:16:05.843Z,98.90
2019-03-25T06:18:34.390Z,98.40
2019-03-25T06:21:02.839Z,97.80
2019-03-25T06:23:31.446Z,97.30
2019-03-25T06:25:59.993Z,96.90
2019-03-25T06:28:28.404Z,96.90
2019-03-25T06:30:56.965Z,96.90
2019-03-25T06:33:25.495Z,97.10
2019-03-25T06:35:53.957Z,97.20
2019-03-25T06:38:22.373Z,97.20
2019-03-25T06:40:51.031Z,97.00
2019-03-25T06:43:19.443Z,97.30
2019-03-25T06:45:47.911Z,97.10
2019-03-25T06:48:16.478Z,96.90
2019-03-25T06:50:45.091Z,96.60
2019-03-25T06:53:13.525Z,96.40
2019-03-25T06:55:42.366Z,96.30
2019-03-25T06:58:10.789Z,95.50
2019-03-25T07:00:39.239Z,94.90
2019-03-25T07:03:08.150Z,94.20
2019-03-25T07:05:36.565Z,93.70
2019-03-25T07:08:05.249Z,93.60
2019-03-25T07:10:37.537Z,93.40
2019-03-25T07:13:06.518Z,93.80
2019-03-25T07:15:34.998Z,93.80
2019-03-25T07:18:03.665Z,93.80
2019-03-25T07:20:32.115Z,94.40
2019-03-25T07:23:02.421Z,94.60
2019-03-25T07:25:31.076Z,94.90
2019-03-25T07:27:59.711Z,94.80
2019-03-25T07:30:28.409Z,94.60
2019-03-25T07:32:56.884Z,94.50
2019-03-25T07:35:25.367Z,95.00
2019-03-25T07:37:53.865Z,96.50
2019-03-25T07:40:22.461Z,96.30
2019-03-25T07:42:50.970Z,97.00
2019-03-25T07:45:19.732Z,97.00
2019-03-25T07:47:48.298Z,96.10
2019-03-25T07:50:16.800Z,95.60
2019-03-25T07:52:45.306Z,94.50
2019-03-25T07:55:13.998Z,93.00
2019-03-25T07:57:48.058Z,91.50
2019-03-25T08:00:14.466Z,90.80
2019-03-25T08:02:43.184Z,90.20
2019-03-25T08:05:12.049Z,89.60
2019-03-25T08:07:40.574Z,89.50
2019-03-25T08:10:09.715Z,88.10
2019-03-25T08:12:38.125Z,87.10
2019-03-25T08:15:08.314Z,85.40
2019-03-25T08:17:36.719Z,84.70
2019-03-25T08:20:07.752Z,84.40
2019-03-25T08:22:36.282Z,83.50
2019-03-25T08:25:06.316Z,84.90
2019-03-25T08:27:43.975Z,85.60
2019-03-25T08:30:14.431Z,86.80
2019-03-25T08:32:42.907Z,87.50
2019-03-25T08:35:13.932Z,88.00
2019-03-25T08:37:42.475Z,88.90
2019-03-25T08:40:12.022Z,89.60
2019-03-25T08:42:40.621Z,90.00
2019-03-25T08:45:10.888Z,90.40
2019-03-25T08:47:39.986Z,90.40
2019-03-25T08:50:09.996Z,90.30
2019-03-25T08:52:38.461Z,90.20
2019-03-25T08:55:07.386Z,90.00
2019-03-25T08:57:36.581Z,89.90
2019-03-25T09:00:07.079Z,90.50
2019-03-25T09:02:38.009Z,90.70
2019-03-25T09:05:07.966Z,90.60
2019-03-25T09:07:37.231Z,90.60
2019-03-25T09:10:08.613Z,88.20
2019-03-25T09:12:37.352Z,85.80
2019-03-25T09:15:09.494Z,85.60
2019-03-25T09:17:38.887Z,83.80
2019-03-25T09:20:08.634Z,83.00
2019-03-25T09:22:37.565Z,83.20
2019-03-25T09:25:07.655Z,83.20
2019-03-25T09:27:36.271Z,83.20
2019-03-25T09:30:07.246Z,84.20
2019-03-25T09:32:35.828Z,87.50
2019-03-25T09:35:12.342Z,88.80
2019-03-25T09:37:40.858Z,88.50
2019-03-25T09:40:11.031Z,89.00
2019-03-25T09:42:40.682Z,87.80
2019-03-25T09:45:11.926Z,88.10
2019-03-25T09:47:40.499Z,86.90
2019-03-25T09:50:09.934Z,83.20
2019-03-25T09:52:39.058Z,86.20
2019-03-25T09:55:08.524Z,86.80
2019-03-25T09:57:37.067Z,87.40
2019-03-25T10:00:12.371Z,85.60
2019-03-25T10:02:41.365Z,83.70
2019-03-25T10:05:11.474Z,82.40
2019-03-25T10:07:40.100Z,80.20
2019-03-25T10:10:09.192Z,78.20
2019-03-25T10:12:37.672Z,77.60
2019-03-25T10:15:08.423Z,74.10
2019-03-25T10:17:36.945Z,69.00
2019-03-25T10:20:08.579Z,68.00
2019-03-25T10:22:37.142Z,73.20
2019-03-25T10:25:07.547Z,84.50
2019-03-25T10:27:36.107Z,90.40
2019-03-25T10:30:10.555Z,92.80
2019-03-25T10:32:40.879Z,94.00
2019-03-25T10:35:09.952Z,93.60
2019-03-25T10:37:38.565Z,91.50
2019-03-25T10:40:07.450Z,89.30
2019-03-25T10:42:35.952Z,83.30
2019-03-25T10:45:06.673Z,79.90
2019-03-25T10:47:35.174Z,77.90
2019-03-25T10:50:04.847Z,75.20
2019-03-25T10:52:33.390Z,73.70
2019-03-25T10:55:01.918Z,70.80
2019-03-25T10:57:30.436Z,69.00
2019-03-25T10:59:58.920Z,68.50
2019-03-25T11:02:27.380Z,66.20
2019-03-25T11:04:55.877Z,67.50
2019-03-25T11:07:24.402Z,67.40
2019-03-25T11:09:52.853Z,69.90
2019-03-25T11:12:21.394Z,67.40
2019-03-25T11:14:49.871Z,65.80
2019-03-25T11:17:20.639Z,67.20
2019-03-25T11:19:49.111Z,69.00
2019-03-25T11:22:17.561Z,70.50
2019-03-25T11:24:46.106Z,71.60
2019-03-25T11:27:14.528Z,72.80
2019-03-25T11:29:43.127Z,74.50
2019-03-25T11:32:11.710Z,77.70
2019-03-25T11:34:40.191Z,85.80
2019-03-25T11:37:08.798Z,92.00
2019-03-25T11:39:37.429Z,93.10
2019-03-25T11:42:05.995Z,93.90
2019-03-25T11:44:34.440Z,91.10
2019-03-25T11:47:03.070Z,87.40
2019-03-25T11:49:31.559Z,79.20
2019-03-25T11:51:59.998Z,78.00
2019-03-25T11:54:28.999Z,75.50
2019-03-25T11:56:57.415Z,73.80
2019-03-25T11:59:25.887Z,73.80
2019-03-25T12:01:54.398Z,72.30
2019-03-25T12:04:22.818Z,69.90
2019-03-25T12:06:51.371Z,66.50
2019-03-25T12:09:19.845Z,70.10
2019-03-25T12:11:48.474Z,74.00
2019-03-25T12:14:16.978Z,77.40
2019-03-25T12:16:45.463Z,83.40
2019-03-25T12:19:13.944Z,88.60
2019-03-25T12:21:42.401Z,89.70
2019-03-25T12:24:10.927Z,90.00
2019-03-25T12:26:39.441Z,90.00
2019-03-25T12:29:07.971Z,89.70
2019-03-25T12:31:36.412Z,90.10
2019-03-25T12:34:05.346Z,88.30
2019-03-25T12:36:33.967Z,87.70
2019-03-25T12:39:02.482Z,86.20
2019-03-25T12:41:30.890Z,83.30
2019-03-25T12:44:04.873Z,82.30
2019-03-25T12:46:33.443Z,82.70
2019-03-25T12:49:01.942Z,82.40
2019-03-25T12:51:30.540Z,82.50
2019-03-25T12:53:59.057Z,81.20
2019-03-25T12:56:27.461Z,78.20
2019-03-25T12:58:56.035Z,77.50
2019-03-25T13:01:24.570Z,75.40
2019-03-25T13:03:56.139Z,74.90
2019-03-25T13:06:24.593Z,72.40
2019-03-25T13:08:53.222Z,70.30
2019-03-25T13:11:21.877Z,68.10
2019-03-25T13:13:50.405Z,68.80
2019-03-25T13:16:18.932Z,68.40
2019-03-25T13:18:47.480Z,70.00
2019-03-25T13:21:15.998Z,70.50
2019-03-25T13:23:44.607Z,70.70
2019-03-25T13:26:13.101Z,74.70
2019-03-25T13:28:41.571Z,77.10
2019-03-25T13:31:10.102Z,78.30
2019-03-25T13:33:38.641Z,75.80
2019-03-25T13:36:07.801Z,73.50
2019-03-25T13:38:36.862Z,71.00
2019-03-25T13:41:05.395Z,72.60
2019-03-25T13:43:33.920Z,75.90
2019-03-25T13:46:05.716Z,80.10
2019-03-25T13:48:32.668Z,83.90
2019-03-25T13:51:01.192Z,88.30
2019-03-25T13:53:29.707Z,91.20
2019-03-25T13:55:58.218Z,93.40
2019-03-25T13:58:26.697Z,96.30
2019-03-25T14:00:55.193Z,97.10
2019-03-25T14:03:23.649Z,99.40
2019-03-25T14:05:52.090Z,99.20
2019-03-25T14:08:20.624Z,99.20
2019-03-25T14:10:49.240Z,99.90
2019-03-25T14:13:18.274Z,99.80
2019-03-25T14:15:46.882Z,99.50
2019-03-25T14:18:34.762Z,99.40
2019-03-25T14:21:03.614Z,99.60
2019-03-25T14:23:32.107Z,99.70
2019-03-25T14:26:00.719Z,99.90
2019-03-25T14:28:29.373Z,99.90
2019-03-25T14:30:57.917Z,99.90
2019-03-25T14:33:26.457Z,99.90
2019-03-25T14:35:54.922Z,99.60
2019-03-25T14:38:23.807Z,99.30
2019-03-25T14:40:52.315Z,98.80
2019-03-25T14:43:20.831Z,98.60
2019-03-25T14:45:49.543Z,98.90
2019-03-25T14:48:17.987Z,98.70
2019-03-25T14:50:46.463Z,98.60
2019-03-25T14:53:15.227Z,97.80
2019-03-25T14:55:43.696Z,97.00
2019-03-25T14:58:12.119Z,95.70
2019-03-25T15:00:40.641Z,95.30
2019-03-25T15:03:09.148Z,94.30
2019-03-25T15:05:37.646Z,94.10
2019-03-25T15:08:06.229Z,94.90
2019-03-25T15:10:34.660Z,95.20
2019-03-25T15:13:03.139Z,95.50
2019-03-25T15:15:31.844Z,96.10
2019-03-25T15:18:00.263Z,95.70
2019-03-25T15:20:28.709Z,96.30
2019-03-25T15:22:57.519Z,95.90
2019-03-25T15:25:26.023Z,95.60
2019-03-25T15:27:54.713Z,94.30
2019-03-25T15:30:23.407Z,94.30
2019-03-25T15:32:51.980Z,94.10
2019-03-25T15:35:20.468Z,92.70
2019-03-25T15:37:49.049Z,93.20
2019-03-25T15:40:17.732Z,92.80
2019-03-25T15:42:46.312Z,93.10
2019-03-25T15:45:15.323Z,92.70
2019-03-25T15:47:47.069Z,92.60
2019-03-25T15:50:14.682Z,92.40
2019-03-25T15:52:43.214Z,92.40
2019-03-25T15:55:12.185Z,92.90
2019-03-25T15:57:40.905Z,92.70
2019-03-25T16:00:16.178Z,92.20
2019-03-25T16:02:44.841Z,93.60
2019-03-25T16:05:13.707Z,93.40
2019-03-25T16:07:42.455Z,94.10
2019-03-25T16:10:11.319Z,94.10
2019-03-25T16:12:40.231Z,93.90
2019-03-25T16:15:09.865Z,94.20
2019-03-25T16:17:38.349Z,94.60
2019-03-25T16:20:07.979Z,95.20
2019-03-25T16:22:36.890Z,95.30
2019-03-25T16:25:07.403Z,95.80
2019-03-25T16:27:35.954Z,95.90
2019-03-25T16:30:07.598Z,94.80
2019-03-25T16:32:36.101Z,94.90
2019-03-25T16:35:06.161Z,94.90
2019-03-25T16:37:34.861Z,95.00
2019-03-25T16:40:03.678Z,94.80
2019-03-25T16:42:32.134Z,94.70
2019-03-25T16:45:01.172Z,94.00
2019-03-25T16:47:29.781Z,94.10
2019-03-25T16:49:58.340Z,94.20
2019-03-25T16:52:26.973Z,93.80
2019-03-25T16:54:55.535Z,94.10
2019-03-25T16:57:35.993Z,94.00
2019-03-25T17:00:06.343Z,94.00
2019-03-25T17:02:34.917Z,92.80
2019-03-25T17:05:03.992Z,93.10
2019-03-25T17:07:32.523Z,92.00
2019-03-25T17:10:00.970Z,91.30
2019-03-25T17:12:29.639Z,90.50
2019-03-25T17:14:58.152Z,90.20
2019-03-25T17:17:26.632Z,90.40
2019-03-25T17:20:01.552Z,88.90
2019-03-25T17:22:30.115Z,88.40
2019-03-25T17:24:58.558Z,88.40
2019-03-25T17:27:28.293Z,87.40
2019-03-25T17:29:56.739Z,88.20
2019-03-25T17:32:25.773Z,87.70
2019-03-25T17:34:54.344Z,87.80
2019-03-25T17:37:22.935Z,88.10
2019-03-25T17:39:51.363Z,88.10
2019-03-25T17:42:20.075Z,88.40
2019-03-25T17:44:48.502Z,88.90
2019-03-25T17:47:16.956Z,88.70
2019-03-25T17:49:45.744Z,88.20
2019-03-25T17:52:14.237Z,87.80
2019-03-25T17:54:43.117Z,88.10
2019-03-25T17:57:12.291Z,89.00
2019-03-25T17:59:40.961Z,89.20
2019-03-25T18:02:09.442Z,90.10
2019-03-25T18:04:45.050Z,89.60
2019-03-25T18:07:13.645Z,89.90
2019-03-25T18:09:42.280Z,90.10
2019-03-25T18:12:11.055Z,90.70
2019-03-25T18:14:40.294Z,90.70
2019-03-25T18:17:08.769Z,90.90
2019-03-25T18:19:37.513Z,90.90
2019-03-25T18:22:06.936Z,91.40
2019-03-25T18:24:35.622Z,91.10
2019-03-25T18:27:05.006Z,90.80
2019-03-25T18:29:33.812Z,91.00
2019-03-25T18:32:02.599Z,91.30
2019-03-25T18:34:31.779Z,91.20
2019-03-25T18:37:00.511Z,91.10
2019-03-25T18:39:28.994Z,91.20
2019-03-25T18:41:58.326Z,91.10
2019-03-25T18:44:26.892Z,91.10
2019-03-25T18:46:55.543Z,91.50
2019-03-25T18:49:25.965Z,91.20
2019-03-25T18:51:54.621Z,91.10
2019-03-25T18:54:24.745Z,91.20
2019-03-25T18:56:53.514Z,91.30
2019-03-25T18:59:22.150Z,91.10
2019-03-25T19:01:54.790Z,91.70
2019-03-25T19:04:21.596Z,91.60
2019-03-25T19:06:50.504Z,91.30
2019-03-25T19:09:19.183Z,91.40
2019-03-25T19:11:48.433Z,91.30
2019-03-25T19:14:16.995Z,91.30
2019-03-25T19:16:45.665Z,91.30
2019-03-25T19:19:14.377Z,91.20
2019-03-25T19:21:42.995Z,91.70
2019-03-25T19:24:11.590Z,91.60
2019-03-25T19:26:40.327Z,91.60
2019-03-25T19:29:08.866Z,92.10
2019-03-25T19:31:46.421Z,92.30
2019-03-25T19:34:14.981Z,92.10
2019-03-25T19:36:43.512Z,92.30
2019-03-25T19:39:12.242Z,92.30
2019-03-25T19:41:40.715Z,92.40
2019-03-25T19:44:09.367Z,92.30
2019-03-25T19:46:38.295Z,92.20
2019-03-25T19:49:06.855Z,92.50
2019-03-25T19:51:35.472Z,92.50
2019-03-25T19:54:04.427Z,92.60
2019-03-25T19:56:32.936Z,92.60
2019-03-25T19:59:01.443Z,93.00
2019-03-25T20:01:30.581Z,92.90
2019-03-25T20:03:59.168Z,93.20
2019-03-25T20:06:27.641Z,93.30
2019-03-25T20:08:56.760Z,93.20
2019-03-25T20:11:25.302Z,93.10
2019-03-25T20:13:53.871Z,93.20
2019-03-25T20:16:22.890Z,93.20
2019-03-25T20:18:52.707Z,93.00
2019-03-25T20:21:21.238Z,93.20
2019-03-25T20:23:50.652Z,93.30
2019-03-25T20:26:19.538Z,93.20
2019-03-25T20:28:48.046Z,93.20
2019-03-25T20:31:17.099Z,93.40
2019-03-25T20:33:45.637Z,93.40
2019-03-25T20:36:14.480Z,93.60
2019-03-25T20:38:43.299Z,93.70
2019-03-25T20:41:12.399Z,93.40
2019-03-25T20:43:40.991Z,93.70
2019-03-25T20:46:09.851Z,93.60
2019-03-25T20:48:38.746Z,93.70
2019-03-25T20:51:07.765Z,94.20
2019-03-25T20:53:36.763Z,94.00
2019-03-25T20:56:05.818Z,93.80
2019-03-25T20:58:34.888Z,94.00
2019-03-25T21:01:03.859Z,93.90
2019-03-25T21:03:32.568Z,94.10
2019-03-25T21:06:01.068Z,94.10
2019-03-25T21:08:29.841Z,94.20
2019-03-25T21:10:58.391Z,93.70
2019-03-25T21:13:26.882Z,93.90
2019-03-25T21:15:56.245Z,93.80
2019-03-25T21:18:24.898Z,94.10
2019-03-25T21:20:53.398Z,94.00
2019-03-25T21:23:22.776Z,93.70
2019-03-25T21:25:51.307Z,93.70
2019-03-25T21:28:19.805Z,93.60
2019-03-25T21:30:48.764Z,93.80
2019-03-25T21:33:17.426Z,93.60
2019-03-25T21:35:46.000Z,93.60
2019-03-25T21:38:15.133Z,93.80
2019-03-25T21:40:43.565Z,93.80
2019-03-25T21:43:12.007Z,93.80
2019-03-25T21:45:41.012Z,94.00
2019-03-25T21:48:09.693Z,94.20
2019-03-25T21:50:38.182Z,94.20
2019-03-25T21:53:07.082Z,94.30
2019-03-25T21:55:35.816Z,94.60
2019-03-25T21:58:04.432Z,95.00
2019-03-25T22:00:33.188Z,95.10
2019-03-25T22:03:11.366Z,95.60
2019-03-25T22:05:31.983Z,95.30
2019-03-25T22:08:00.567Z,95.40
2019-03-25T22:10:29.129Z,95.40
2019-03-25T22:12:57.737Z,95.40
2019-03-25T22:15:26.270Z,95.40
2019-03-25T22:17:54.761Z,95.40
2019-03-25T22:20:23.263Z,95.40
2019-03-25T22:22:51.952Z,95.10
2019-03-25T22:25:20.451Z,95.20
2019-03-25T22:27:48.998Z,95.30
2019-03-25T22:30:17.806Z,95.50
2019-03-25T22:32:46.324Z,95.40
2019-03-25T22:35:14.767Z,95.50
2019-03-25T22:37:43.369Z,95.70
2019-03-25T22:40:16.121Z,95.80
2019-03-25T22:42:44.689Z,95.70
2019-03-25T22:45:13.588Z,96.30
2019-03-25T22:47:42.292Z,96.10
2019-03-25T22:50:14.237Z,96.10
2019-03-25T22:52:42.703Z,96.10
2019-03-25T22:55:11.233Z,96.00
2019-03-25T22:57:39.857Z,96.30
2019-03-25T23:00:08.898Z,96.20
2019-03-25T23:02:37.392Z,96.20
2019-03-25T23:05:07.009Z,96.50
2019-03-25T23:07:35.598Z,96.10
2019-03-25T23:10:04.918Z,96.20
2019-03-25T23:12:33.610Z,96.10
2019-03-25T23:15:02.156Z,96.20
2019-03-25T23:17:30.598Z,96.10
2019-03-25T23:19:59.571Z,96.20
2019-03-25T23:22:28.060Z,96.20
2019-03-25T23:24:56.554Z,96.10
2019-03-25T23:27:25.442Z,96.30
2019-03-25T23:29:53.931Z,96.40
2019-03-25T23:32:22.518Z,96.30
2019-03-25T23:34:51.639Z,96.40
2019-03-25T23:37:20.141Z,96.50
2019-03-25T23:39:48.606Z,96.60
2019-03-25T23:42:17.238Z,96.60
2019-03-25T23:44:45.738Z,96.60
2019-03-25T23:47:14.217Z,96.90
2019-03-25T23:49:43.322Z,96.50
2019-03-25T23:52:11.794Z,96.50
2019-03-25T23:54:40.221Z,96.40
2019-03-25T23:57:08.870Z,96.50
2019-03-25T23:59:37.350Z,96.40
